createdAt,value
2023-12-07T00:00:51.916Z,4.79
2023-12-07T00:05:53.381Z,4.68
2023-12-07T00:10:54.824Z,4.72
2023-12-07T00:15:56.308Z,4.72
2023-12-07T00:20:57.737Z,4.74
2023-12-07T00:25:59.199Z,4.79
2023-12-07T00:31:00.673Z,4.76
2023-12-07T00:36:02.068Z,4.91
2023-12-07T00:41:03.629Z,4.94
2023-12-07T00:46:08.451Z,5.09
2023-12-07T00:51:10.853Z,5.17
2023-12-07T00:56:12.318Z,5.15
2023-12-07T01:01:13.880Z,5.10
2023-12-07T01:06:17.786Z,5.03
2023-12-07T01:11:19.281Z,4.93
2023-12-07T01:16:20.706Z,4.89
2023-12-07T01:21:22.203Z,4.73
2023-12-07T01:26:23.632Z,4.76
2023-12-07T01:31:25.218Z,4.78
2023-12-07T01:36:26.739Z,4.70
2023-12-07T01:41:28.138Z,4.60
2023-12-07T01:46:29.673Z,4.43
2023-12-07T01:51:32.306Z,4.29
2023-12-07T01:56:33.799Z,4.18
2023-12-07T02:01:35.206Z,4.01
2023-12-07T02:06:36.805Z,3.85
2023-12-07T02:11:38.202Z,3.70
2023-12-07T02:17:29.979Z,3.55
2023-12-07T02:22:50.700Z,3.38
2023-12-07T02:27:52.118Z,3.29
2023-12-07T02:32:53.757Z,3.20
2023-12-07T02:37:55.753Z,3.12
2023-12-07T02:42:58.448Z,3.06
2023-12-07T02:48:00.066Z,2.94
2023-12-07T02:53:01.544Z,2.84
2023-12-07T02:58:03.117Z,2.76
2023-12-07T03:03:05.005Z,2.68
2023-12-07T03:08:06.482Z,2.60
2023-12-07T03:13:07.951Z,2.49
2023-12-07T03:18:09.562Z,2.39
2023-12-07T03:23:11.004Z,2.41
2023-12-07T03:28:12.412Z,2.48
2023-12-07T03:33:13.957Z,2.48
2023-12-07T03:38:16.094Z,2.51
2023-12-07T03:43:20.343Z,2.48
2023-12-07T03:48:21.909Z,2.43
2023-12-07T03:53:23.318Z,2.38
2023-12-07T03:58:24.803Z,2.44
2023-12-07T04:03:26.366Z,2.38
2023-12-07T04:08:27.784Z,2.38
2023-12-07T04:13:29.200Z,2.38
2023-12-07T04:18:30.636Z,2.38
2023-12-07T04:23:32.395Z,2.30
2023-12-07T04:28:33.792Z,2.25
2023-12-07T04:33:35.350Z,2.19
2023-12-07T04:38:36.874Z,2.26
2023-12-07T04:43:38.283Z,2.29
2023-12-07T04:48:39.680Z,2.33
2023-12-07T04:53:41.229Z,2.35
2023-12-07T04:58:43.150Z,2.38
2023-12-07T05:03:44.591Z,2.46
2023-12-07T05:08:45.979Z,2.49
2023-12-07T05:13:48.997Z,2.46
2023-12-07T05:18:50.453Z,2.44
2023-12-07T05:23:51.912Z,2.37
2023-12-07T05:28:53.322Z,2.25
2023-12-07T05:33:54.744Z,2.21
2023-12-07T05:38:56.510Z,2.14
2023-12-07T05:43:57.882Z,2.09
2023-12-07T05:48:59.726Z,2.06
2023-12-07T05:54:01.134Z,2.00
2023-12-07T05:59:02.513Z,1.96
2023-12-07T06:04:03.966Z,1.76
2023-12-07T06:09:09.120Z,1.78
2023-12-07T06:14:10.649Z,1.68
2023-12-07T06:19:12.112Z,1.64
2023-12-07T06:24:15.302Z,1.60
2023-12-07T06:29:16.731Z,1.63
2023-12-07T06:34:18.276Z,1.73
2023-12-07T06:39:19.818Z,1.69
2023-12-07T06:44:21.190Z,1.63
2023-12-07T06:49:25.428Z,1.68
2023-12-07T06:54:28.272Z,1.72
2023-12-07T06:59:29.673Z,1.73
2023-12-07T07:04:31.117Z,1.71
2023-12-07T07:09:32.586Z,1.67
2023-12-07T07:14:34.064Z,1.79
2023-12-07T07:19:35.531Z,1.88
2023-12-07T07:24:36.927Z,1.97
2023-12-07T07:29:38.388Z,1.97
2023-12-07T07:34:40.670Z,1.94
2023-12-07T07:39:42.177Z,1.97
2023-12-07T07:44:43.720Z,2.06
2023-12-07T07:49:45.153Z,2.19
2023-12-07T07:54:46.549Z,2.30
2023-12-07T07:59:47.923Z,2.37
2023-12-07T08:04:49.441Z,2.41
2023-12-07T08:09:50.829Z,2.48
2023-12-07T08:14:52.330Z,2.43
2023-12-07T08:19:54.384Z,2.43
2023-12-07T08:25:01.347Z,2.49
2023-12-07T08:30:10.539Z,2.54
2023-12-07T08:35:12.124Z,2.54
2023-12-07T08:40:16.218Z,2.62
2023-12-07T08:45:18.476Z,2.67
2023-12-07T08:50:19.860Z,2.74
2023-12-07T08:55:21.426Z,2.86
2023-12-07T09:00:25.244Z,3.11
2023-12-07T09:05:27.683Z,3.36
2023-12-07T09:10:29.352Z,3.47
2023-12-07T09:15:31.234Z,3.44
2023-12-07T09:20:32.615Z,3.69
2023-12-07T09:25:34.059Z,3.91
2023-12-07T09:30:35.752Z,3.90
2023-12-07T09:35:37.168Z,4.16
2023-12-07T09:40:38.574Z,4.04
2023-12-07T09:45:40.246Z,3.89
2023-12-07T09:50:41.652Z,4.02
2023-12-07T09:55:43.026Z,4.10
2023-12-07T10:00:44.788Z,4.36
2023-12-07T10:05:57.420Z,4.40
2023-12-07T10:11:14.119Z,4.50
2023-12-07T10:16:17.396Z,4.52
2023-12-07T10:21:32.750Z,4.82
2023-12-07T10:26:35.430Z,5.14
2023-12-07T10:31:39.083Z,5.35
2023-12-07T10:36:41.743Z,5.67
2023-12-07T10:41:44.696Z,5.81
2023-12-07T10:46:46.401Z,6.10
2023-12-07T10:52:02.121Z,6.26
2023-12-07T10:57:06.274Z,6.43
2023-12-07T11:02:11.848Z,6.50
2023-12-07T11:07:18.168Z,6.51
2023-12-07T11:12:30.251Z,6.52
2023-12-07T11:17:49.011Z,6.48
2023-12-07T11:22:51.234Z,6.53
2023-12-07T11:28:03.155Z,6.46
2023-12-07T11:33:08.329Z,6.41
2023-12-07T11:38:12.607Z,6.32
2023-12-07T11:43:41.794Z,6.28
2023-12-07T11:48:50.506Z,6.30
2023-12-07T11:53:52.141Z,6.38
2023-12-07T11:58:54.073Z,6.48
2023-12-07T12:03:55.808Z,6.59
2023-12-07T12:08:57.327Z,6.72
2023-12-07T12:13:59.018Z,6.79
2023-12-07T12:19:00.982Z,6.83
2023-12-07T12:24:02.374Z,6.78
2023-12-07T12:29:04.117Z,6.79
2023-12-07T12:34:14.575Z,6.79
2023-12-07T12:39:26.599Z,6.71
2023-12-07T12:44:36.806Z,6.68
2023-12-07T12:49:44.905Z,6.55
2023-12-07T12:54:47.843Z,6.47
2023-12-07T12:59:51.949Z,6.48
2023-12-07T13:04:53.550Z,6.52
2023-12-07T13:09:55.612Z,6.50
2023-12-07T13:14:57.180Z,6.26
2023-12-07T13:20:01.148Z,6.12
2023-12-07T13:25:03.599Z,6.12
2023-12-07T13:30:08.281Z,6.11
2023-12-07T13:35:09.903Z,6.14
2023-12-07T13:40:13.069Z,6.17
2023-12-07T13:45:14.967Z,6.13
2023-12-07T13:50:16.378Z,6.00
2023-12-07T13:55:17.786Z,6.00
2023-12-07T14:00:21.018Z,5.93
2023-12-07T14:05:23.400Z,5.97
2023-12-07T14:10:24.998Z,5.85
2023-12-07T14:15:35.296Z,5.75
2023-12-07T14:20:56.216Z,5.86
2023-12-07T14:26:07.488Z,5.90
2023-12-07T14:31:15.342Z,5.95
2023-12-07T14:36:17.283Z,5.96
2023-12-07T14:41:18.734Z,5.92
2023-12-07T14:46:20.103Z,5.93
2023-12-07T14:51:22.258Z,5.88
2023-12-07T14:56:23.753Z,5.90
2023-12-07T15:01:25.536Z,5.93
2023-12-07T15:06:28.507Z,5.93
2023-12-07T15:11:30.071Z,5.92
2023-12-07T15:16:31.532Z,5.84
2023-12-07T15:21:33.190Z,5.86
2023-12-07T15:26:34.870Z,5.87
2023-12-07T15:31:36.351Z,5.73
2023-12-07T15:36:37.763Z,5.70
2023-12-07T15:41:39.395Z,5.63
2023-12-07T15:46:40.778Z,5.55
2023-12-07T15:51:42.152Z,5.43
2023-12-07T15:56:45.209Z,5.46
2023-12-07T16:01:46.590Z,5.37
2023-12-07T16:06:48.218Z,5.36
2023-12-07T16:11:49.606Z,5.33
2023-12-07T16:16:51.740Z,5.21
2023-12-07T16:21:53.157Z,5.10
2023-12-07T16:26:54.850Z,4.97
2023-12-07T16:31:56.467Z,4.92
2023-12-07T16:36:57.874Z,4.93
2023-12-07T16:42:02.371Z,4.88
2023-12-07T16:47:05.081Z,4.77
2023-12-07T16:52:06.545Z,4.73
2023-12-07T16:57:08.124Z,4.66
2023-12-07T17:02:09.579Z,4.73
2023-12-07T17:07:11.464Z,4.71
2023-12-07T17:12:12.875Z,4.74
2023-12-07T17:17:14.427Z,4.67
2023-12-07T17:22:15.826Z,4.51
2023-12-07T17:27:17.959Z,4.62
2023-12-07T17:32:19.354Z,4.63
2023-12-07T17:37:20.780Z,4.59
2023-12-07T17:42:22.304Z,4.34
2023-12-07T17:47:24.787Z,4.17
2023-12-07T17:52:26.314Z,4.04
2023-12-07T17:57:27.897Z,3.94
2023-12-07T18:02:29.616Z,3.88
2023-12-07T18:07:31.050Z,3.82
2023-12-07T18:12:32.456Z,3.84
2023-12-07T18:17:33.957Z,3.89
2023-12-07T18:22:35.383Z,3.91
2023-12-07T18:27:36.840Z,3.97
2023-12-07T18:32:38.358Z,3.93
2023-12-07T18:37:41.318Z,3.82
2023-12-07T18:42:43.008Z,3.66
2023-12-07T18:47:44.670Z,3.49
2023-12-07T18:52:46.284Z,3.35
2023-12-07T18:57:47.771Z,3.20
2023-12-07T19:02:49.385Z,3.05
2023-12-07T19:07:50.851Z,2.93
2023-12-07T19:12:52.491Z,2.84
2023-12-07T19:17:54.101Z,2.75
2023-12-07T19:22:56.018Z,2.61
2023-12-07T19:27:57.434Z,2.55
2023-12-07T19:33:03.384Z,2.50
2023-12-07T19:38:06.044Z,2.45
2023-12-07T19:43:07.549Z,2.38
2023-12-07T19:48:09.315Z,2.32
2023-12-07T19:53:11.175Z,2.27
2023-12-07T19:58:13.648Z,2.23
2023-12-07T20:03:15.079Z,2.22
2023-12-07T20:08:16.586Z,2.17
2023-12-07T20:13:18.029Z,2.11
2023-12-07T20:18:20.263Z,2.10
2023-12-07T20:23:21.856Z,2.08
2023-12-07T20:28:23.277Z,2.11
2023-12-07T20:33:24.855Z,2.07
2023-12-07T20:38:26.427Z,2.07
2023-12-07T20:43:28.047Z,2.10
2023-12-07T20:48:29.558Z,2.16
2023-12-07T20:53:31.136Z,2.25
2023-12-07T20:58:33.883Z,2.33
2023-12-07T21:03:36.216Z,2.41
2023-12-07T21:08:39.456Z,2.47
2023-12-07T21:13:40.871Z,2.54
2023-12-07T21:18:42.530Z,2.67
2023-12-07T21:23:44.045Z,2.79
2023-12-07T21:28:45.589Z,2.87
2023-12-07T21:33:47.106Z,2.95
2023-12-07T21:38:49.120Z,2.96
2023-12-07T21:43:50.510Z,2.59
2023-12-07T21:48:52.009Z,2.68
2023-12-07T21:53:53.520Z,2.83
2023-12-07T21:58:54.961Z,2.86
2023-12-07T22:03:56.375Z,2.83
2023-12-07T22:08:57.814Z,2.78
2023-12-07T22:13:59.259Z,2.65
2023-12-07T22:19:00.707Z,2.75
2023-12-07T22:24:02.278Z,2.93
2023-12-07T22:29:03.667Z,2.84
2023-12-07T22:34:05.312Z,2.77
2023-12-07T22:39:06.953Z,2.85
2023-12-07T22:44:08.349Z,2.85
2023-12-07T22:49:09.817Z,2.96
2023-12-07T22:54:11.313Z,3.03
2023-12-07T22:59:12.751Z,3.12
2023-12-07T23:04:14.154Z,3.13
2023-12-07T23:09:15.516Z,3.22
2023-12-07T23:14:16.946Z,3.18
2023-12-07T23:19:19.030Z,3.13
2023-12-07T23:24:20.676Z,3.21
2023-12-07T23:29:22.075Z,3.14
2023-12-07T23:34:24.630Z,3.10
2023-12-07T23:39:26.200Z,3.12
2023-12-07T23:44:27.671Z,3.09
2023-12-07T23:49:29.574Z,3.08
2023-12-07T23:54:31.208Z,3.20
2023-12-07T23:59:32.738Z,3.37
